Terminal Aerodrome Forecast
Issued by NWS Grand Forks, ND

Home | Current Version | Previous Version | Graphics & Text | Print | Product List | Glossary On
Versions: 1 2 3 4 5 6 7 8 9 10 11 12 13 14 15 16 17 18 19 20
000
FTUS43 KFGF 271658 AAC
TAFGFK
TAF AMD
KGFK 271658Z 2717/2812 14010KT P6SM BKN026
     FM272000 15014G20KT P6SM SCT040
     FM280600 15015G23KT P6SM -TSRA BKN040CB
     FM281000 18013KT P6SM BKN050=

USA.gov is the U.S. government's official web portal to all federal, state and local government web resources and services.